Time;durP1;ratioP1;P1;durP2;ratioP2;P2;SDS_P1;SDS_P2;PMS_P1;PMS_P2;Temp;Humidity;BMP_temperature;BMP_pressure;BME280_temperature;BME280_humidity;BME280_pressure;Samples;Min_cycle;Max_cycle;Signal;HPM_P1;HPM_P2
2023/06/11 00:00:19;;;;;;;536.72;501.48;;;;;;;33.13;23.59;101588.91;5071465;28;20408;-71
2023/06/11 00:02:44;;;;;;;456.55;427.60;;;;;;;32.17;24.02;101591.44;5089594;28;20109;-72
2023/06/11 00:05:10;;;;;;;543.15;506.92;;;;;;;33.24;22.93;101585.22;5090248;28;20064;-72
2023/06/11 00:07:37;;;;;;;550.70;513.53;;;;;;;32.44;23.66;101581.81;5057649;28;20139;-73
2023/06/11 00:10:06;;;;;;;562.65;524.70;;;;;;;32.82;23.42;101580.09;5051552;28;20028;-72
2023/06/11 00:12:33;;;;;;;618.28;575.38;;;;;;;32.64;23.53;101580.81;5070174;28;20021;-71
2023/06/11 00:15:02;;;;;;;597.63;556.72;;;;;;;32.08;24.67;101576.00;5068555;28;20024;-71
2023/06/11 00:17:28;;;;;;;653.35;607.55;;;;;;;32.51;24.07;101576.66;5052201;28;20111;-72
2023/06/11 00:19:53;;;;;;;729.08;676.63;;;;;;;32.44;24.51;101577.25;5079584;28;20210;-72
2023/06/11 00:22:18;;;;;;;728.15;675.75;;;;;;;32.01;24.79;101569.44;5071601;28;20024;-72
2023/06/11 00:24:44;;;;;;;761.70;705.53;;;;;;;32.45;24.63;101572.66;5071279;28;20036;-72
2023/06/11 00:27:09;;;;;;;722.55;670.83;;;;;;;31.65;25.11;101574.44;5072499;28;20468;-72
2023/06/11 00:29:37;;;;;;;759.70;703.83;;;;;;;32.46;24.35;101568.97;5063911;28;20119;-72
2023/06/11 00:32:03;;;;;;;759.75;704.05;;;;;;;32.42;24.63;101564.84;5077391;28;20028;-72
2023/06/11 00:34:29;;;;;;;800.13;740.00;;;;;;;32.38;24.75;101566.13;5088572;28;20032;-72
2023/06/11 00:36:54;;;;;;;817.35;754.97;;;;;;;31.78;25.88;101564.28;5068787;28;20024;-72
2023/06/11 00:39:19;;;;;;;803.58;743.00;;;;;;;31.87;25.58;101568.81;5056390;28;20023;-72
2023/06/11 00:41:45;;;;;;;816.15;754.17;;;;;;;32.32;24.99;101561.28;5089672;28;20020;-73
2023/06/11 00:44:17;;;;;;;835.17;771.00;;;;;;;32.46;24.91;101563.56;5071450;28;20055;-72
2023/06/11 00:46:47;;;;;;;870.70;802.45;;;;;;;32.56;24.90;101569.84;5071592;28;20020;-72
2023/06/11 00:49:13;;;;;;;883.47;812.35;;;;;;;32.40;25.27;101564.16;5054876;28;20039;-72
2023/06/11 00:51:42;;;;;;;869.97;801.35;;;;;;;32.27;25.26;101562.56;5054487;28;20021;-72
2023/06/11 00:54:16;;;;;;;912.75;837.78;;;;;;;31.87;25.84;101562.56;5073487;28;20024;-72
2023/06/11 00:56:45;;;;;;;890.20;818.40;;;;;;;31.97;25.26;101563.44;5055087;28;20032;-72
2023/06/11 00:59:13;;;;;;;937.65;858.40;;;;;;;31.82;26.45;101559.44;5054456;28;20073;-72
2023/06/11 01:01:45;;;;;;;947.00;865.90;;;;;;;32.11;25.88;101554.13;5055130;28;20032;-72
2023/06/11 01:04:23;;;;;;;961.65;877.88;;;;;;;32.29;25.60;101552.44;5073235;28;20652;-73
2023/06/11 01:06:52;;;;;;;941.17;860.17;;;;;;;31.69;26.55;101549.72;5061125;28;20035;-72
2023/06/11 01:09:20;;;;;;;984.78;897.10;;;;;;;32.10;25.56;101558.66;5088802;28;20119;-72
2023/06/11 01:11:48;;;;;;;980.17;893.47;;;;;;;31.71;26.50;101557.69;5071832;28;20028;-72
2023/06/11 01:14:16;;;;;;;1017.90;923.22;;;;;;;31.97;26.24;101561.63;5073127;28;20036;-72
2023/06/11 01:16:52;;;;;;;1053.85;949.70;;;;;;;31.73;26.31;101556.56;5053574;28;20107;-72
2023/06/11 01:19:33;;;;;;;1056.30;953.50;;;;;;;31.80;26.69;101551.47;5054582;28;20065;-72
2023/06/11 01:22:13;;;;;;;1059.05;954.55;;;;;;;31.25;27.37;101554.47;5054242;28;20494;-71
2023/06/11 01:24:53;;;;;;;1089.82;976.85;;;;;;;31.55;26.86;101552.78;5054711;28;20115;-72
2023/06/11 01:27:26;;;;;;;1109.35;990.58;;;;;;;31.29;27.24;101547.81;5054450;28;20506;-72
2023/06/11 01:29:55;;;;;;;1186.25;999.90;;;;;;;31.13;27.53;101548.28;5076415;28;20043;-72
2023/06/11 01:32:23;;;;;;;1125.40;997.38;;;;;;;30.92;27.90;101546.41;5055120;28;20035;-72
2023/06/11 01:34:49;;;;;;;1258.15;999.90;;;;;;;31.15;27.84;101554.41;5058651;28;20028;-72
2023/06/11 01:37:15;;;;;;;1246.70;999.90;;;;;;;31.01;28.39;101554.69;5074126;28;20030;-72
2023/06/11 01:39:45;;;;;;;1388.03;999.90;;;;;;;31.11;27.80;101550.25;5066774;28;20029;-72
2023/06/11 01:42:11;;;;;;;1423.22;999.90;;;;;;;30.80;28.33;101555.53;5054637;28;20524;-72
2023/06/11 01:44:36;;;;;;;1513.50;999.90;;;;;;;31.01;28.33;101550.19;5054216;28;20031;-72
2023/06/11 01:47:01;;;;;;;1546.47;999.90;;;;;;;30.60;28.76;101550.00;5054131;28;20028;-73
2023/06/11 01:49:27;;;;;;;1601.65;999.90;;;;;;;30.39;29.27;101549.06;5072323;28;20025;-72
2023/06/11 01:51:52;;;;;;;1894.32;999.90;;;;;;;31.50;28.20;101555.00;5072106;28;20408;-72
2023/06/11 01:54:18;;;;;;;1879.63;999.90;;;;;;;31.08;28.06;101539.75;5054539;28;20020;-70
2023/06/11 01:56:43;;;;;;;1902.50;999.90;;;;;;;31.21;28.28;101551.16;5054642;28;20496;-70
2023/06/11 01:59:09;;;;;;;1994.93;999.90;;;;;;;31.23;28.45;101551.91;5069452;28;20122;-71
2023/06/11 02:01:37;;;;;;;1999.90;999.90;;;;;;;31.38;28.78;101548.84;5054714;28;20488;-70
2023/06/11 02:04:03;;;;;;;1999.90;999.90;;;;;;;31.08;28.62;101558.63;5054758;28;20032;-70
2023/06/11 02:06:29;;;;;;;1999.90;999.90;;;;;;;31.41;28.86;101551.28;5054477;28;20036;-73
2023/06/11 02:08:55;;;;;;;1999.90;999.90;;;;;;;31.16;28.95;101552.56;5065721;28;20452;-71
2023/06/11 02:11:20;;;;;;;1999.90;999.90;;;;;;;31.26;28.69;101557.03;5091070;28;20042;-71
2023/06/11 02:13:46;;;;;;;1999.90;999.90;;;;;;;31.63;28.47;101567.31;5083704;28;20036;-71
2023/06/11 02:16:11;;;;;;;1999.90;999.90;;;;;;;31.45;28.35;101558.13;5054082;28;20052;-71
2023/06/11 02:18:36;;;;;;;1999.90;999.90;;;;;;;31.65;28.43;101559.09;5058957;28;20110;-71
2023/06/11 02:21:02;;;;;;;1999.90;999.90;;;;;;;31.08;29.23;101561.34;5071870;28;20516;-71
2023/06/11 02:23:28;;;;;;;1999.90;992.33;;;;;;;30.86;29.53;101563.13;5053720;28;20017;-71
2023/06/11 02:25:54;;;;;;;1999.90;999.90;;;;;;;30.84;30.03;101565.09;5053787;28;20546;-71
2023/06/11 02:28:19;;;;;;;1999.90;999.90;;;;;;;30.75;29.71;101557.81;5060312;28;20028;-71
2023/06/11 02:30:45;;;;;;;1999.90;999.90;;;;;;;30.77;29.97;101563.91;5090387;28;20494;-72
2023/06/11 02:33:10;;;;;;;1999.90;999.90;;;;;;;31.49;28.87;101562.28;5092119;28;20089;-73
2023/06/11 02:35:35;;;;;;;1999.90;999.90;;;;;;;31.14;29.52;101560.78;5062664;28;20531;-72
2023/06/11 02:38:01;;;;;;;1919.28;859.60;;;;;;;31.17;29.37;101560.50;5074576;28;20102;-73
2023/06/11 02:40:27;;;;;;;1999.90;999.90;;;;;;;30.99;30.05;101562.09;5073940;28;20089;-72
2023/06/11 02:42:52;;;;;;;1999.90;999.90;;;;;;;30.62;30.28;101558.84;5073154;28;20030;-72
2023/06/11 02:45:17;;;;;;;1835.75;790.65;;;;;;;30.73;30.17;101562.47;5073970;28;20028;-73
2023/06/11 02:47:43;;;;;;;1999.90;999.90;;;;;;;31.24;29.33;101561.72;5087607;28;20032;-71
2023/06/11 02:50:08;;;;;;;1999.90;999.90;;;;;;;31.01;29.79;101554.69;5062370;28;20404;-72
2023/06/11 02:52:37;;;;;;;1999.90;999.90;;;;;;;31.34;29.86;101558.19;5073764;28;20392;-73
2023/06/11 02:55:02;;;;;;;1999.90;999.90;;;;;;;30.93;30.11;101563.47;5091797;28;20488;-72
2023/06/11 02:57:29;;;;;;;1999.90;999.90;;;;;;;30.77;30.95;101564.75;5072300;28;20057;-72
2023/06/11 02:59:54;;;;;;;1999.90;999.90;;;;;;;31.06;30.29;101564.13;5090957;28;20113;-73
2023/06/11 03:02:19;;;;;;;1999.90;999.90;;;;;;;30.82;30.29;101564.38;5073577;28;20031;-73
2023/06/11 03:04:45;;;;;;;1999.90;999.90;;;;;;;31.41;29.87;101562.94;5083829;28;20090;-72
2023/06/11 03:07:10;;;;;;;1999.90;999.90;;;;;;;31.16;30.03;101550.72;5053324;28;20115;-72
2023/06/11 03:09:36;;;;;;;1999.90;999.90;;;;;;;30.85;30.69;101550.63;5070353;28;20028;-72
2023/06/11 03:12:01;;;;;;;1999.90;999.90;;;;;;;31.41;29.44;101556.69;5052313;28;20090;-72
2023/06/11 03:14:26;;;;;;;1999.90;999.90;;;;;;;31.56;29.87;101554.47;5071035;28;20025;-72
2023/06/11 03:16:52;;;;;;;1999.90;999.90;;;;;;;31.34;30.23;101561.78;5052771;28;20517;-73
2023/06/11 03:19:18;;;;;;;1999.90;999.90;;;;;;;31.27;30.05;101553.34;5051964;28;20033;-73
2023/06/11 03:21:43;;;;;;;1999.90;999.90;;;;;;;31.22;30.51;101555.59;5070758;28;20028;-72
2023/06/11 03:24:09;;;;;;;1999.90;999.90;;;;;;;30.80;30.99;101555.53;5053094;28;20031;-72
2023/06/11 03:26:37;;;;;;;1999.90;999.90;;;;;;;31.05;31.38;101561.56;5070491;28;20032;-72
2023/06/11 03:29:03;;;;;;;1999.90;999.90;;;;;;;30.95;31.00;101562.34;5066743;28;20077;-73
2023/06/11 03:31:28;;;;;;;1999.90;999.90;;;;;;;30.74;32.18;101553.38;5074123;28;20028;-73
2023/06/11 03:33:54;;;;;;;1999.90;999.90;;;;;;;30.95;31.27;101559.66;5052428;28;20033;-72
2023/06/11 03:36:19;;;;;;;1999.90;999.90;;;;;;;31.05;30.95;101558.88;5069965;28;20051;-72
2023/06/11 03:38:44;;;;;;;1999.90;999.90;;;;;;;31.02;31.40;101561.81;5066288;28;20027;-72
2023/06/11 03:41:10;;;;;;;1999.90;999.90;;;;;;;30.99;32.17;101565.63;5072464;28;20024;-72
2023/06/11 03:43:35;;;;;;;1999.90;999.90;;;;;;;31.24;30.94;101571.63;5072371;28;20055;-72
2023/06/11 03:46:02;;;;;;;1999.90;999.90;;;;;;;30.88;31.86;101558.44;5072429;28;20106;-73
2023/06/11 03:48:27;;;;;;;1999.90;999.90;;;;;;;30.68;32.07;101565.56;5071860;28;20035;-72
2023/06/11 03:50:52;;;;;;;1999.90;999.90;;;;;;;30.91;32.50;101565.44;5090555;28;20024;-72
2023/06/11 03:53:18;;;;;;;1999.90;999.90;;;;;;;30.80;31.94;101566.34;5072120;28;20066;-72
2023/06/11 03:55:43;;;;;;;1999.90;999.90;;;;;;;31.04;31.43;101563.44;5083482;28;20424;-72
2023/06/11 03:58:08;;;;;;;1999.90;999.90;;;;;;;31.12;31.11;101565.47;5057420;28;20111;-72
2023/06/11 04:00:37;;;;;;;1999.90;999.90;;;;;;;30.62;32.15;101572.31;5071695;28;20387;-72
2023/06/11 04:03:02;;;;;;;1999.90;999.90;;;;;;;30.70;31.95;101573.50;5072583;28;20042;-72
2023/06/11 04:05:28;;;;;;;1999.90;999.90;;;;;;;30.36;32.54;101568.22;5072815;28;20433;-72
2023/06/11 04:07:53;;;;;;;1999.90;999.90;;;;;;;30.94;31.90;101571.44;5088057;28;20374;-72
2023/06/11 04:10:19;;;;;;;1999.90;999.90;;;;;;;30.70;32.44;101577.06;5073238;28;20031;-72
2023/06/11 04:12:45;;;;;;;1999.90;999.90;;;;;;;30.07;33.43;101582.25;5070641;28;20476;-72
2023/06/11 04:15:10;;;;;;;1999.90;999.90;;;;;;;29.64;34.31;101589.22;5090472;28;20129;-72
2023/06/11 04:17:35;;;;;;;1999.90;999.90;;;;;;;30.33;32.75;101571.16;5067814;28;20025;-71
2023/06/11 04:20:02;;;;;;;1999.90;999.90;;;;;;;30.71;32.81;101580.63;5052560;28;20115;-72
2023/06/11 04:22:27;;;;;;;1999.90;999.90;;;;;;;31.11;32.13;101578.09;5051927;28;20023;-72
2023/06/11 04:24:53;;;;;;;1999.90;999.90;;;;;;;31.10;32.17;101581.78;5056376;28;20052;-72
2023/06/11 04:27:20;;;;;;;1999.90;999.90;;;;;;;30.90;32.47;101577.19;5074012;28;20028;-72
2023/06/11 04:29:46;;;;;;;1999.90;999.90;;;;;;;30.95;32.92;101567.75;5060993;28;20028;-72
2023/06/11 04:32:16;;;;;;;1999.90;999.90;;;;;;;31.23;31.90;101576.19;5076263;28;20024;-72
2023/06/11 04:34:43;;;;;;;1999.90;999.90;;;;;;;31.16;32.00;101580.44;5056203;28;20033;-72
2023/06/11 04:37:09;;;;;;;1999.90;999.90;;;;;;;30.89;32.40;101579.06;5073683;28;20071;-72
2023/06/11 04:39:35;;;;;;;1999.90;999.90;;;;;;;30.41;33.32;101585.72;5073650;28;20024;-72
2023/06/11 04:42:02;;;;;;;1999.90;999.90;;;;;;;30.23;34.02;101576.47;5056133;28;20029;-71
2023/06/11 04:44:28;;;;;;;1999.90;999.90;;;;;;;30.96;33.06;101574.84;5073659;28;20469;-72
2023/06/11 04:46:57;;;;;;;1999.90;999.90;;;;;;;31.87;31.72;101574.22;5073975;28;20392;-72
2023/06/11 04:49:23;;;;;;;1999.90;999.90;;;;;;;32.86;30.35;101576.13;5056487;28;20043;-73
2023/06/11 04:51:48;;;;;;;1999.90;999.90;;;;;;;33.75;28.91;101579.47;5073486;28;20424;-73
2023/06/11 04:54:17;;;;;;;1615.97;999.90;;;;;;;34.12;28.03;101573.16;5055800;28;20123;-72
2023/06/11 04:56:43;;;;;;;1093.50;985.30;;;;;;;35.04;26.66;101573.03;5072724;28;20108;-72
2023/06/11 04:59:08;;;;;;;969.75;885.38;;;;;;;35.38;26.22;101581.28;5055287;28;20078;-72
2023/06/11 05:01:37;;;;;;;866.35;799.72;;;;;;;36.43;25.37;101577.44;5073297;28;20029;-72
2023/06/11 05:04:03;;;;;;;667.78;620.90;;;;;;;35.88;25.39;101579.66;5073331;28;20031;-72
2023/06/11 05:06:30;;;;;;;599.85;558.85;;;;;;;36.75;24.66;101573.00;5073524;28;20392;-72
2023/06/11 05:08:55;;;;;;;530.47;495.95;;;;;;;36.18;25.14;101577.38;5068186;28;20039;-72
2023/06/11 05:11:21;;;;;;;545.47;509.05;;;;;;;36.26;25.75;101577.38;5074395;28;20020;-72
2023/06/11 05:13:46;;;;;;;553.97;516.70;;;;;;;36.11;25.56;101584.50;5093025;28;20059;-73
2023/06/11 05:16:12;;;;;;;550.92;514.17;;;;;;;35.89;25.63;101584.06;5075398;28;20472;-72
2023/06/11 05:18:38;;;;;;;551.90;515.30;;;;;;;36.52;24.96;101590.03;5062512;28;20471;-73
2023/06/11 05:21:03;;;;;;;614.28;571.95;;;;;;;36.54;25.66;101596.16;5055512;28;20024;-72
2023/06/11 05:23:30;;;;;;;646.13;601.40;;;;;;;34.92;27.26;101602.31;5055425;28;20362;-72
2023/06/11 05:26:02;;;;;;;701.63;652.05;;;;;;;34.94;27.09;101595.72;5054152;28;20024;-73
2023/06/11 05:28:27;;;;;;;739.35;686.05;;;;;;;34.56;27.82;101595.00;5056980;28;20252;-72
2023/06/11 05:30:53;;;;;;;838.95;773.92;;;;;;;34.49;28.20;101599.34;5055107;28;20322;-72
2023/06/11 05:33:20;;;;;;;935.25;856.25;;;;;;;34.11;28.69;101596.69;5054442;28;20488;-73
2023/06/11 05:35:45;;;;;;;1006.90;913.47;;;;;;;34.29;28.66;101604.94;5066172;28;20024;-72
2023/06/11 05:38:11;;;;;;;1051.03;950.55;;;;;;;33.69;29.71;101605.31;5083473;28;20073;-72
2023/06/11 05:40:37;;;;;;;1096.93;983.72;;;;;;;33.88;29.42;101592.69;5053721;28;20028;-72
2023/06/11 05:43:06;;;;;;;1116.95;995.08;;;;;;;33.70;30.07;101601.59;5054860;28;20028;-72
2023/06/11 05:45:32;;;;;;;1166.40;999.90;;;;;;;33.18;30.50;101601.16;5058995;28;20028;-72
2023/06/11 05:47:58;;;;;;;1192.63;999.90;;;;;;;33.47;30.26;101601.13;5061653;28;20067;-72
2023/06/11 05:50:23;;;;;;;1353.22;999.90;;;;;;;33.56;30.38;101604.78;5089292;28;20016;-72
2023/06/11 05:52:49;;;;;;;1453.80;999.90;;;;;;;33.36;30.40;101604.00;5068913;28;20081;-72
2023/06/11 05:55:14;;;;;;;1398.43;999.90;;;;;;;33.15;30.81;101602.28;5057506;28;20040;-72
2023/06/11 05:57:40;;;;;;;1638.63;999.90;;;;;;;34.12;29.34;101598.41;5074224;28;20024;-72
2023/06/11 06:00:07;;;;;;;1588.30;999.90;;;;;;;33.52;29.84;101609.66;5061574;28;20082;-72
2023/06/11 06:02:32;;;;;;;1575.82;999.90;;;;;;;34.32;29.13;101607.31;5054488;28;20028;-72
2023/06/11 06:04:58;;;;;;;1532.15;999.90;;;;;;;33.71;29.74;101611.44;5054151;28;20028;-72
2023/06/11 06:07:23;;;;;;;1548.50;999.90;;;;;;;34.09;29.36;101612.28;5053677;28;20035;-72
2023/06/11 06:09:49;;;;;;;1460.82;999.90;;;;;;;33.70;29.78;101622.44;5071752;28;20029;-72
2023/06/11 06:12:14;;;;;;;1404.32;999.90;;;;;;;35.04;28.49;101616.50;5055933;28;20364;-71
2023/06/11 06:14:40;;;;;;;1130.55;999.90;;;;;;;36.45;26.72;101616.19;5052797;28;20123;-72
2023/06/11 06:17:05;;;;;;;880.30;811.55;;;;;;;36.90;25.88;101625.78;5072177;28;20024;-72
2023/06/11 06:19:31;;;;;;;644.00;599.53;;;;;;;37.63;24.54;101621.28;5053946;28;21682;-72
2023/06/11 06:21:56;;;;;;;507.90;475.10;;;;;;;39.11;22.76;101618.72;5052558;28;20025;-72
2023/06/11 06:24:21;;;;;;;344.73;324.65;;;;;;;40.98;20.90;101626.53;5073287;28;20028;-72
2023/06/11 06:26:56;;;;;;;380.25;358.27;;;;;;;41.51;20.34;101628.81;5053000;28;20029;-72
2023/06/11 06:29:21;;;;;;;302.05;285.55;;;;;;;40.93;20.60;101637.25;5071225;28;20025;-73
2023/06/11 06:31:46;;;;;;;338.50;319.65;;;;;;;41.86;20.05;101626.06;5054695;28;20487;-73
2023/06/11 06:34:12;;;;;;;377.40;355.17;;;;;;;41.19;19.99;101624.78;5072995;28;20383;-73
2023/06/11 06:36:38;;;;;;;318.27;300.02;;;;;;;41.36;19.93;101626.19;5053548;28;20039;-72
2023/06/11 06:39:04;;;;;;;364.02;342.90;;;;;;;43.11;19.70;101624.84;5074777;28;20472;-73
2023/06/11 06:41:30;;;;;;;439.20;413.08;;;;;;;42.53;19.34;101633.66;5072554;28;20035;-72
2023/06/11 06:43:56;;;;;;;481.75;452.52;;;;;;;43.58;18.42;101633.00;5070759;28;20030;-73
2023/06/11 06:46:21;;;;;;;480.42;450.98;;;;;;;42.93;18.35;101633.69;5054472;28;20024;-73
2023/06/11 06:48:46;;;;;;;475.42;446.60;;;;;;;44.24;17.09;101628.25;5071288;28;20060;-72
2023/06/11 06:51:12;;;;;;;528.67;495.58;;;;;;;43.33;18.22;101630.09;5051653;28;20109;-72
2023/06/11 06:53:37;;;;;;;505.38;473.90;;;;;;;42.86;18.76;101636.44;5070651;28;20028;-72
2023/06/11 06:56:05;;;;;;;526.78;493.48;;;;;;;42.74;19.96;101635.38;5071179;28;20500;-74
2023/06/11 06:58:32;;;;;;;455.88;428.40;;;;;;;42.79;18.57;101637.53;5091453;28;20091;-73
2023/06/11 07:00:57;;;;;;;390.05;366.75;;;;;;;43.34;18.14;101640.88;5071848;28;20020;-73
2023/06/11 07:03:23;;;;;;;408.98;384.58;;;;;;;44.07;17.39;101632.63;5070050;28;20024;-74
2023/06/11 07:05:48;;;;;;;475.15;446.02;;;;;;;43.36;19.03;101626.91;5068274;28;20070;-73
2023/06/11 07:08:13;;;;;;;404.80;380.35;;;;;;;43.25;18.38;101633.06;5083326;28;20430;-73
2023/06/11 07:10:48;;;;;;;399.15;375.52;;;;;;;42.38;18.49;101637.44;5052717;28;20469;-74
2023/06/11 07:13:15;;;;;;;471.98;442.77;;;;;;;42.71;18.90;101631.16;5070513;28;20024;-73
2023/06/11 07:15:40;;;;;;;427.00;401.35;;;;;;;42.79;18.22;101629.28;5075333;28;20034;-73
2023/06/11 07:18:06;;;;;;;410.98;386.30;;;;;;;44.36;17.25;101640.28;5054215;28;20119;-73
2023/06/11 07:20:31;;;;;;;470.08;441.13;;;;;;;44.54;18.28;101638.69;5052509;28;20029;-73
2023/06/11 07:22:59;;;;;;;260.67;246.40;;;;;;;44.38;17.23;101629.91;5079855;28;20107;-73
2023/06/11 07:25:28;;;;;;;281.17;265.65;;;;;;;45.64;16.58;101626.22;5089839;28;20035;-73
2023/06/11 07:27:56;;;;;;;313.88;296.52;;;;;;;46.25;16.06;101633.75;5087850;28;20039;-73
2023/06/11 07:30:22;;;;;;;295.45;279.17;;;;;;;46.41;16.33;101635.84;5071254;28;20024;-73
2023/06/11 07:32:48;;;;;;;255.93;242.07;;;;;;;45.98;16.61;101626.66;5071009;28;20024;-73
2023/06/11 07:35:13;;;;;;;383.10;360.52;;;;;;;46.34;15.61;101630.41;5072217;28;20105;-74
2023/06/11 07:37:38;;;;;;;377.33;355.05;;;;;;;47.28;15.54;101630.75;5089852;28;20476;-73
2023/06/11 07:40:05;;;;;;;398.63;374.90;;;;;;;45.88;16.12;101626.41;5089559;28;20036;-73
2023/06/11 07:42:30;;;;;;;389.10;365.80;;;;;;;47.92;14.72;101633.53;5090375;28;20533;-74
2023/06/11 07:44:56;;;;;;;266.23;251.63;;;;;;;47.26;14.79;101630.19;5064544;28;20028;-73
2023/06/11 07:47:21;;;;;;;267.58;252.70;;;;;;;46.04;15.62;101631.28;5051371;28;20472;-73
2023/06/11 07:49:46;;;;;;;221.85;209.77;;;;;;;46.40;15.34;101635.00;5069468;28;20028;-73
2023/06/11 07:52:12;;;;;;;225.98;213.73;;;;;;;46.71;15.39;101641.31;5076522;28;20066;-74
2023/06/11 07:54:38;;;;;;;261.20;246.38;;;;;;;46.80;16.72;101635.44;5070163;28;20537;-73
2023/06/11 07:57:04;;;;;;;242.07;228.93;;;;;;;47.96;14.14;101633.88;5071577;28;20044;-74
2023/06/11 07:59:30;;;;;;;214.55;202.57;;;;;;;48.58;14.09;101627.53;5070591;28;20389;-74
2023/06/11 08:01:55;;;;;;;157.45;148.85;;;;;;;46.24;16.64;101630.16;5071561;28;20073;-73
2023/06/11 08:04:21;;;;;;;219.40;207.45;;;;;;;46.62;15.01;101626.16;5071931;28;20062;-73
2023/06/11 08:06:46;;;;;;;243.02;229.90;;;;;;;46.61;15.41;101624.47;5050934;28;20388;-73
2023/06/11 08:09:11;;;;;;;275.63;260.42;;;;;;;47.19;15.65;101620.06;5051757;28;20567;-73
2023/06/11 08:11:37;;;;;;;242.90;229.20;;;;;;;47.42;14.94;101623.06;5054368;28;20039;-72
2023/06/11 08:14:02;;;;;;;233.70;220.95;;;;;;;48.32;14.40;101620.72;5081467;28;20098;-72
2023/06/11 08:16:28;;;;;;;149.63;141.38;;;;;;;47.82;14.53;101622.28;5054387;28;20439;-73
2023/06/11 08:18:55;;;;;;;232.20;219.57;;;;;;;48.51;14.51;101626.88;5069415;28;20123;-74
2023/06/11 08:21:20;;;;;;;168.18;159.10;;;;;;;48.12;15.26;101621.16;5063014;28;20070;-74
2023/06/11 08:23:46;;;;;;;182.60;172.70;;;;;;;48.82;14.28;101630.13;5068911;28;20032;-73
2023/06/11 08:26:12;;;;;;;198.65;188.07;;;;;;;48.62;13.57;101625.94;5091724;28;20034;-73
2023/06/11 08:28:37;;;;;;;174.13;164.75;;;;;;;47.40;15.60;101617.78;5091896;28;20056;-73
2023/06/11 08:31:03;;;;;;;218.65;206.93;;;;;;;47.84;15.32;101626.44;5071188;28;20563;-73
2023/06/11 08:33:28;;;;;;;173.55;164.18;;;;;;;48.05;14.72;101624.94;5075839;28;20032;-73
2023/06/11 08:35:54;;;;;;;154.00;145.65;;;;;;;47.26;15.36;101619.94;5059867;28;20192;-73
2023/06/11 08:38:19;;;;;;;169.23;160.07;;;;;;;49.23;14.06;101619.66;5062441;28;20024;-73
2023/06/11 08:40:45;;;;;;;208.65;197.27;;;;;;;48.48;14.40;101619.03;5068056;28;20020;-73
2023/06/11 08:43:10;;;;;;;209.98;198.52;;;;;;;46.90;15.63;101613.59;5078351;28;20032;-73
2023/06/11 08:45:36;;;;;;;231.68;219.07;;;;;;;47.03;15.23;101616.13;5070585;28;20024;-73
2023/06/11 08:48:03;;;;;;;282.10;266.55;;;;;;;47.56;15.87;101607.88;5066750;28;20021;-73
2023/06/11 08:50:31;;;;;;;238.27;225.40;;;;;;;48.02;14.86;101611.59;5051276;28;20035;-73
2023/06/11 08:53:00;;;;;;;137.98;130.52;;;;;;;47.73;15.35;101607.94;5058572;28;20036;-73
2023/06/11 08:55:26;;;;;;;292.45;275.98;;;;;;;49.36;14.18;101608.19;5050698;28;20122;-73
2023/06/11 08:57:51;;;;;;;258.80;244.60;;;;;;;47.93;15.49;101613.06;5055952;28;20024;-73
2023/06/11 09:00:17;;;;;;;249.95;236.23;;;;;;;49.26;14.47;101619.19;5069305;28;20023;-74
2023/06/11 09:02:43;;;;;;;271.88;257.00;;;;;;;47.06;15.64;101603.72;5080474;28;20036;-73
2023/06/11 09:05:10;;;;;;;323.98;305.48;;;;;;;46.35;16.79;101604.47;5088895;28;20518;-74
2023/06/11 09:07:36;;;;;;;401.98;378.20;;;;;;;48.36;14.95;101603.31;5070198;28;20042;-72
2023/06/11 09:10:11;;;;;;;448.30;420.80;;;;;;;48.49;14.99;101606.84;5071103;28;20036;-72
2023/06/11 09:12:36;;;;;;;380.20;357.90;;;;;;;48.33;14.96;101605.78;5070107;28;20395;-72
2023/06/11 09:15:05;;;;;;;363.15;341.83;;;;;;;46.77;16.54;101600.00;5079550;28;20024;-72
2023/06/11 09:17:38;;;;;;;314.40;296.38;;;;;;;47.19;15.51;101597.94;5089657;28;20050;-72
2023/06/11 09:20:06;;;;;;;324.88;306.35;;;;;;;46.58;16.02;101605.63;5074471;28;20020;-72
2023/06/11 09:22:32;;;;;;;367.48;346.13;;;;;;;48.11;15.08;101602.88;5090633;28;20031;-72
2023/06/11 09:25:02;;;;;;;301.95;284.92;;;;;;;49.81;14.21;101606.25;5071513;28;20369;-72
2023/06/11 09:27:27;;;;;;;285.17;269.42;;;;;;;50.10;13.69;101608.78;5082578;28;20028;-72
2023/06/11 09:29:53;;;;;;;203.80;192.73;;;;;;;49.71;13.88;101595.88;5068601;28;20037;-72
2023/06/11 09:32:18;;;;;;;259.00;244.77;;;;;;;49.30;14.45;101600.91;5063187;28;20024;-72
2023/06/11 09:34:45;;;;;;;254.05;240.40;;;;;;;47.95;14.84;101599.78;5071705;28;20111;-72
2023/06/11 09:37:11;;;;;;;330.63;312.15;;;;;;;49.84;14.04;101597.38;5091839;28;20027;-73
2023/06/11 09:39:36;;;;;;;164.60;155.73;;;;;;;48.72;14.47;101603.09;5071653;28;20034;-74
2023/06/11 09:42:02;;;;;;;189.27;179.10;;;;;;;47.72;15.10;101597.94;5060492;28;20031;-73
2023/06/11 09:44:31;;;;;;;219.80;207.82;;;;;;;47.85;15.20;101596.84;5076379;28;20112;-73
2023/06/11 09:46:57;;;;;;;271.60;256.70;;;;;;;47.80;15.31;101608.66;5059465;28;20522;-72
2023/06/11 09:49:24;;;;;;;305.42;288.42;;;;;;;47.57;15.40;101602.09;5077810;28;20040;-73
2023/06/11 09:51:51;;;;;;;343.35;323.40;;;;;;;48.41;15.10;101597.88;5057731;28;20035;-72
2023/06/11 09:54:18;;;;;;;325.48;307.17;;;;;;;49.59;14.07;101606.28;5089818;28;20061;-72
2023/06/11 09:56:44;;;;;;;143.35;135.55;;;;;;;49.39;13.96;101601.28;5059857;28;20043;-73
2023/06/11 09:59:13;;;;;;;135.43;128.05;;;;;;;47.72;14.60;101606.25;5051320;28;20040;-73
2023/06/11 10:01:41;;;;;;;150.88;142.73;;;;;;;47.80;15.02;101610.59;5072363;28;20028;-72
2023/06/11 10:04:06;;;;;;;230.38;217.82;;;;;;;48.10;15.00;101606.72;5063251;28;20075;-72
2023/06/11 10:06:44;;;;;;;302.10;285.23;;;;;;;46.56;16.19;101616.03;5087193;28;20024;-72
2023/06/11 10:09:12;;;;;;;431.15;404.95;;;;;;;45.47;17.16;101612.22;5068403;28;20059;-72
2023/06/11 10:11:40;;;;;;;399.15;375.20;;;;;;;46.77;16.19;101605.53;5062160;28;20024;-72
2023/06/11 10:14:11;;;;;;;426.63;400.98;;;;;;;45.97;16.63;101613.94;5052244;28;20639;-71
2023/06/11 10:16:37;;;;;;;;;;;;;;;45.87;16.97;101610.91;5057022;28;20066;-73
2023/06/11 10:19:10;;;;;;;537.85;502.73;;;;;;;47.06;16.74;101606.50;5080119;28;19912;-73
2023/06/11 10:21:50;;;;;;;458.17;430.33;;;;;;;46.41;16.37;101608.22;5054147;28;20028;-72
2023/06/11 10:24:26;;;;;;;420.33;395.08;;;;;;;44.63;17.51;101615.31;5062854;28;20031;-65
2023/06/11 10:27:05;;;;;;;579.65;541.10;;;;;;;45.83;16.94;101601.38;5065851;28;20036;-62
2023/06/11 10:29:36;;;;;;;571.65;533.83;;;;;;;45.72;16.96;101601.06;5057946;28;20028;-62
2023/06/11 10:32:02;;;;;;;515.90;483.17;;;;;;;45.44;17.16;101598.00;5059554;28;20047;-62
2023/06/11 10:34:38;;;;;;;550.00;513.92;;;;;;;46.40;16.39;101607.38;5069318;28;20515;-66
2023/06/11 10:37:03;;;;;;;491.20;460.77;;;;;;;48.88;14.95;101606.97;5055838;28;20042;-63
2023/06/11 10:39:30;;;;;;;361.48;340.55;;;;;;;48.33;14.58;101601.06;5064523;28;20032;-63
2023/06/11 10:42:01;;;;;;;361.30;340.50;;;;;;;46.92;15.36;101596.75;5059882;28;20031;-63
2023/06/11 10:44:27;;;;;;;372.10;350.33;;;;;;;46.20;16.09;101595.78;5066653;28;20116;-72
2023/06/11 10:46:53;;;;;;;347.38;327.48;;;;;;;45.75;16.34;101599.75;5066311;28;20095;-71
2023/06/11 10:49:26;;;;;;;385.15;362.55;;;;;;;46.43;16.36;101597.78;5052770;28;20036;-71